createdAt,value
2022-11-10T00:03:31.303Z,99040.70
2022-11-10T00:07:02.304Z,99046.23
2022-11-10T00:10:33.081Z,99057.98
2022-11-10T00:14:17.904Z,99048.48
2022-11-10T00:17:48.235Z,99060.23
2022-11-10T00:21:20.357Z,99060.36
2022-11-10T00:24:50.756Z,99060.58
2022-11-10T00:28:21.553Z,99067.89
2022-11-10T00:31:51.874Z,99067.04
2022-11-10T00:35:22.780Z,99062.73
2022-11-10T00:38:55.831Z,99053.11
2022-11-10T00:42:26.160Z,99061.76
2022-11-10T00:45:56.646Z,99065.38
2022-11-10T00:49:26.698Z,99068.95
2022-11-10T00:52:57.116Z,99068.13
2022-11-10T00:56:28.377Z,99070.87
2022-11-10T00:59:58.537Z,99072.69
2022-11-10T01:03:28.668Z,99075.33
2022-11-10T01:06:59.318Z,99073.63
2022-11-10T01:10:29.812Z,99077.23
2022-11-10T01:14:01.733Z,99085.98
2022-11-10T01:17:32.377Z,99081.67
2022-11-10T01:21:02.371Z,99076.39
2022-11-10T01:24:32.663Z,99077.23
2022-11-10T01:28:02.861Z,99085.25
2022-11-10T01:31:33.367Z,99071.95
2022-11-10T01:35:03.665Z,99080.09
2022-11-10T01:38:36.993Z,99085.73
2022-11-10T01:42:07.502Z,99093.14
2022-11-10T01:45:54.622Z,99095.17
2022-11-10T01:49:28.900Z,99097.08
2022-11-10T01:53:02.280Z,99104.02
2022-11-10T01:56:34.848Z,99099.72
2022-11-10T02:00:05.416Z,99108.58
2022-11-10T02:03:42.098Z,99109.75
2022-11-10T02:07:12.799Z,99106.73
2022-11-10T02:10:43.178Z,99114.02
2022-11-10T02:14:13.907Z,99106.94
2022-11-10T02:17:45.108Z,99111.05
2022-11-10T02:21:15.851Z,99122.34
2022-11-10T02:24:46.512Z,99125.71
2022-11-10T02:28:16.923Z,99120.31
2022-11-10T02:31:47.366Z,99119.82
2022-11-10T02:35:17.951Z,99124.86
2022-11-10T02:38:48.528Z,99126.56
2022-11-10T02:42:18.873Z,99130.55
2022-11-10T02:45:49.487Z,99130.55
2022-11-10T02:49:19.705Z,99139.44
2022-11-10T02:52:50.325Z,99129.70
2022-11-10T02:56:20.872Z,99131.40
2022-11-10T02:59:51.114Z,99126.97
2022-11-10T03:03:21.493Z,99128.76
2022-11-10T03:06:52.032Z,99130.78
2022-11-10T03:10:23.278Z,99134.36
2022-11-10T03:14:01.655Z,99137.97
2022-11-10T03:17:26.027Z,99137.00
2022-11-10T03:20:57.256Z,99142.08
2022-11-10T03:24:27.576Z,99149.88
2022-11-10T03:27:58.090Z,99146.39
2022-11-10T03:31:28.496Z,99144.92
2022-11-10T03:34:58.599Z,99147.68
2022-11-10T03:38:29.067Z,99143.45
2022-11-10T03:41:59.167Z,99153.16
2022-11-10T03:45:29.565Z,99160.27
2022-11-10T03:49:00.270Z,99160.35
2022-11-10T03:52:30.320Z,99164.58
2022-11-10T03:56:00.483Z,99159.18
2022-11-10T03:59:31.096Z,99166.28
2022-11-10T04:03:01.181Z,99169.42
2022-11-10T04:06:46.271Z,99165.84
2022-11-10T04:10:17.880Z,99168.04
2022-11-10T04:14:02.581Z,99172.14
2022-11-10T04:17:32.616Z,99173.38
2022-11-10T04:21:05.562Z,99174.11
2022-11-10T04:24:35.702Z,99182.52
2022-11-10T04:28:05.971Z,99182.20
2022-11-10T04:31:39.665Z,99187.16
2022-11-10T04:35:10.490Z,99185.00
2022-11-10T04:38:40.867Z,99168.66
2022-11-10T04:42:11.983Z,99188.90
2022-11-10T04:45:42.298Z,99178.09
2022-11-10T04:49:14.256Z,99178.70
2022-11-10T04:52:44.452Z,99178.70
2022-11-10T04:56:19.322Z,99180.16
2022-11-10T04:59:49.600Z,99175.39
2022-11-10T05:03:21.133Z,99182.87
2022-11-10T05:06:51.805Z,99188.77
2022-11-10T05:10:22.564Z,99198.15
2022-11-10T05:13:55.281Z,99206.81
2022-11-10T05:17:25.998Z,99213.55
2022-11-10T05:20:56.858Z,99197.20
2022-11-10T05:24:27.212Z,99212.13
2022-11-10T05:27:57.453Z,99212.77
2022-11-10T05:31:30.277Z,99223.70
2022-11-10T05:35:00.407Z,99227.80
2022-11-10T05:38:31.135Z,99226.86
2022-11-10T05:42:01.429Z,99232.03
2022-11-10T05:45:33.673Z,99237.31
2022-11-10T05:49:03.785Z,99245.04
2022-11-10T05:52:34.431Z,99254.52
2022-11-10T05:56:04.839Z,99247.56
2022-11-10T05:59:35.374Z,99258.02
2022-11-10T06:03:08.640Z,99271.48
2022-11-10T06:06:39.041Z,99271.58
2022-11-10T06:10:10.821Z,99279.52
2022-11-10T06:13:41.292Z,99278.56
2022-11-10T06:17:11.415Z,99289.88
2022-11-10T06:20:42.076Z,99287.96
2022-11-10T06:24:14.099Z,99294.92
2022-11-10T06:27:48.918Z,99317.79
2022-11-10T06:31:19.304Z,99324.54
2022-11-10T06:34:50.364Z,99327.06
2022-11-10T06:38:21.090Z,99331.29
2022-11-10T06:41:51.253Z,99338.25
2022-11-10T06:45:22.039Z,99343.55
2022-11-10T06:48:52.455Z,99348.11
2022-11-10T06:52:23.111Z,99360.48
2022-11-10T06:55:53.538Z,99363.25
2022-11-10T06:59:23.707Z,99365.41
2022-11-10T07:02:56.407Z,99370.81
2022-11-10T07:06:27.298Z,99372.36
2022-11-10T07:09:58.285Z,99380.30
2022-11-10T07:13:30.593Z,99382.95
2022-11-10T07:17:00.784Z,99389.33
2022-11-10T07:20:31.029Z,99395.23
2022-11-10T07:24:01.507Z,99407.28
2022-11-10T07:27:31.556Z,99396.70
2022-11-10T07:31:01.936Z,99407.04
2022-11-10T07:34:32.247Z,99403.66
2022-11-10T07:38:02.947Z,99417.63
2022-11-10T07:41:33.496Z,99418.06
2022-11-10T07:45:03.856Z,99413.22
2022-11-10T07:48:34.334Z,99429.20
2022-11-10T07:52:05.169Z,99427.86
2022-11-10T07:55:35.278Z,99433.59
2022-11-10T07:59:05.998Z,99432.61
2022-11-10T08:02:36.753Z,99439.73
2022-11-10T08:06:07.404Z,99431.14
2022-11-10T08:09:37.957Z,99445.95
2022-11-10T08:13:11.039Z,99446.58
2022-11-10T08:16:41.450Z,99450.48
2022-11-10T08:20:15.458Z,99462.73
2022-11-10T08:23:45.541Z,99464.21
2022-11-10T08:27:16.252Z,99471.21
2022-11-10T08:30:49.362Z,99467.39
2022-11-10T08:34:20.185Z,99479.44
2022-11-10T08:37:50.580Z,99484.30
2022-11-10T08:41:20.836Z,99502.45
2022-11-10T08:44:50.970Z,99500.38
2022-11-10T08:48:24.186Z,99497.41
2022-11-10T08:51:54.297Z,99502.46
2022-11-10T08:55:25.076Z,99505.84
2022-11-10T08:58:55.602Z,99503.93
2022-11-10T09:02:26.071Z,99519.38
2022-11-10T09:05:58.679Z,99514.81
2022-11-10T09:09:30.482Z,99529.63
2022-11-10T09:13:02.544Z,99529.27
